Bullhead City Mohave Valley, Arizona
Current Conditions -  °F | °C
As of 1:56 PM on Sunday 21 Dec 2014 (Local Time) from KEED Reporting Station
Clear Clear  
Wind Chill: 59°   Ceiling: Unl
Heat Index: 59°   Visibility: 10mi
Dew Point: 40°   Wind: 3mph
Humidity: 49%   Direction: 80°E
Pressure: 30.09"   Gusts: NA
Location:  34.91°N, 114.546°W
Report Text: KEED 212056Z AUTO 08003KT 10SM CLR 15/04 A3009 RMK AO2 SLP178 T01500044 58024
Loading
Personal Weather Stations






























Interactive Weather Map New forecast layout! Learn more

10-Day Weather Forecast

Advertisements
Track Severe Weather on mobile